createdAt,value
2023-05-17T00:01:24.165Z,1.00
2023-05-17T00:05:41.810Z,1.00
2023-05-17T00:10:00.195Z,1.17
2023-05-17T00:14:17.836Z,0.80
2023-05-17T00:18:35.640Z,1.42
2023-05-17T00:22:53.246Z,1.00
2023-05-17T00:27:10.889Z,0.88
2023-05-17T00:31:28.573Z,1.08
2023-05-17T00:35:46.127Z,1.33
2023-05-17T00:40:05.945Z,0.60
2023-05-17T00:44:23.558Z,0.88
2023-05-17T00:48:41.585Z,1.00
2023-05-17T00:52:59.461Z,1.65
2023-05-17T00:57:17.450Z,5.45
2023-05-17T01:01:36.603Z,0.90
2023-05-17T01:05:54.304Z,2.40
2023-05-17T01:10:12.358Z,0.63
2023-05-17T01:14:51.863Z,1.02
2023-05-17T01:19:39.763Z,0.50
2023-05-17T01:24:40.546Z,2.10
2023-05-17T01:29:00.449Z,5.25
2023-05-17T01:33:21.625Z,0.93
2023-05-17T01:37:39.954Z,1.00
2023-05-17T01:42:07.683Z,0.70
2023-05-17T01:46:35.828Z,0.65
2023-05-17T01:50:56.923Z,1.15
2023-05-17T01:55:26.356Z,0.65
2023-05-17T01:59:45.398Z,0.73
2023-05-17T02:04:03.049Z,0.90
2023-05-17T02:08:20.731Z,1.10
2023-05-17T02:12:38.612Z,1.52
2023-05-17T02:16:56.207Z,0.70
2023-05-17T02:21:13.869Z,1.13
2023-05-17T02:25:32.046Z,1.02
2023-05-17T02:34:07.412Z,1.07
2023-05-17T02:38:25.128Z,0.77
2023-05-17T02:42:42.849Z,1.65
2023-05-17T02:47:00.411Z,1.02
2023-05-17T02:51:18.216Z,1.30
2023-05-17T02:55:36.031Z,1.08
2023-05-17T02:59:53.804Z,0.80
2023-05-17T03:04:11.372Z,0.77
2023-05-17T03:08:29.169Z,1.40
2023-05-17T03:12:46.771Z,1.98
2023-05-17T03:17:04.742Z,1.02
2023-05-17T03:21:22.249Z,1.15
2023-05-17T03:25:41.065Z,1.13
2023-05-17T03:29:58.574Z,1.02
2023-05-17T03:34:16.560Z,1.10
2023-05-17T03:38:34.096Z,1.60
2023-05-17T03:42:52.316Z,1.10
2023-05-17T03:47:09.893Z,1.58
2023-05-17T03:51:27.672Z,0.73
2023-05-17T03:55:45.398Z,1.02
2023-05-17T04:00:12.074Z,0.70
2023-05-17T04:04:29.849Z,0.55
2023-05-17T04:08:47.672Z,0.90
2023-05-17T04:13:05.211Z,1.35
2023-05-17T04:17:23.076Z,0.40
2023-05-17T04:21:40.881Z,0.47
2023-05-17T04:25:58.698Z,0.30
2023-05-17T04:30:17.477Z,2.17
2023-05-17T04:34:35.007Z,0.63
2023-05-17T04:38:52.851Z,1.10
2023-05-17T04:43:11.140Z,0.88
2023-05-17T04:47:28.340Z,1.42
2023-05-17T04:51:46.839Z,0.52
2023-05-17T04:56:04.689Z,0.93
2023-05-17T05:00:24.568Z,0.57
2023-05-17T05:04:42.167Z,1.23
2023-05-17T05:09:01.916Z,0.63
2023-05-17T05:13:19.568Z,1.10
2023-05-17T05:17:37.908Z,1.50
2023-05-17T05:26:13.083Z,3.07
2023-05-17T05:30:30.766Z,0.75
2023-05-17T05:34:48.590Z,1.48
2023-05-17T05:39:08.536Z,0.52
2023-05-17T05:43:26.693Z,0.50
2023-05-17T05:47:44.469Z,3.13
2023-05-17T05:52:02.363Z,0.70
2023-05-17T05:56:20.007Z,4.32
2023-05-17T06:00:37.780Z,2.00
2023-05-17T06:04:55.339Z,1.83
2023-05-17T06:09:12.972Z,0.70
2023-05-17T06:13:30.836Z,0.93
2023-05-17T06:17:48.819Z,7.45
2023-05-17T06:26:24.017Z,1.10
2023-05-17T06:30:41.744Z,1.35
2023-05-17T06:34:59.314Z,0.85
2023-05-17T06:39:17.125Z,4.70
2023-05-17T06:43:35.768Z,1.52
2023-05-17T06:47:55.430Z,1.77
2023-05-17T06:56:31.877Z,4.07
2023-05-17T07:00:49.410Z,12.10
2023-05-17T07:05:08.176Z,6.18
2023-05-17T07:09:25.905Z,4.45
2023-05-17T07:13:43.798Z,3.42
2023-05-17T07:18:01.439Z,6.72
2023-05-17T07:22:20.089Z,11.88
2023-05-17T07:26:37.872Z,7.25
2023-05-17T07:30:55.448Z,3.38
2023-05-17T07:35:13.210Z,11.98
2023-05-17T07:39:30.923Z,7.65
2023-05-17T07:43:48.691Z,5.20
2023-05-17T07:48:06.515Z,2.83
2023-05-17T07:52:24.588Z,3.55
2023-05-17T07:56:42.239Z,10.02
2023-05-17T08:01:00.212Z,18.33
2023-05-17T08:05:17.814Z,6.88
2023-05-17T08:09:35.575Z,11.50
2023-05-17T08:13:53.354Z,5.15
2023-05-17T08:18:11.007Z,7.55
2023-05-17T08:22:28.759Z,5.85
2023-05-17T08:26:46.423Z,6.78
2023-05-17T08:31:04.529Z,9.60
2023-05-17T08:39:39.857Z,10.05
2023-05-17T08:43:59.251Z,8.43
2023-05-17T08:48:23.488Z,8.40
2023-05-17T08:52:46.799Z,7.32
2023-05-17T08:57:06.985Z,9.25
2023-05-17T09:01:26.476Z,9.07
2023-05-17T09:05:47.731Z,8.25
2023-05-17T09:10:06.986Z,4.85
2023-05-17T09:14:24.581Z,11.20
2023-05-17T09:18:42.638Z,5.82
2023-05-17T09:27:26.671Z,4.70
2023-05-17T09:31:45.129Z,5.43
2023-05-17T09:36:03.376Z,4.53
2023-05-17T09:40:25.461Z,5.30
2023-05-17T09:44:53.709Z,5.82
2023-05-17T09:49:11.501Z,6.30
2023-05-17T09:53:38.565Z,16.02
2023-05-17T09:58:04.064Z,12.07
2023-05-17T10:02:33.038Z,8.18
2023-05-17T10:06:52.737Z,6.30
2023-05-17T10:11:11.351Z,5.50
2023-05-17T10:15:29.856Z,6.00
2023-05-17T10:19:48.668Z,8.23
2023-05-17T10:24:08.301Z,12.57
2023-05-17T10:28:28.758Z,12.13
2023-05-17T10:32:46.944Z,8.98
2023-05-17T10:37:05.957Z,11.25
2023-05-17T10:41:27.747Z,4.60
2023-05-17T10:45:46.926Z,8.18
2023-05-17T10:50:12.248Z,5.35
2023-05-17T10:54:44.981Z,5.40
2023-05-17T10:59:18.716Z,2.25
2023-05-17T11:03:36.966Z,2.72
2023-05-17T11:08:17.524Z,8.77
2023-05-17T11:12:42.095Z,10.27
2023-05-17T11:16:59.621Z,6.70
2023-05-17T11:21:17.803Z,8.18
2023-05-17T11:25:41.081Z,4.90
2023-05-17T11:30:00.576Z,3.38
2023-05-17T11:34:19.037Z,4.22
2023-05-17T11:38:37.224Z,7.03
2023-05-17T11:47:40.851Z,4.90
2023-05-17T11:51:59.371Z,7.90
2023-05-17T11:56:20.647Z,7.10
2023-05-17T12:00:42.316Z,12.35
2023-05-17T12:05:00.294Z,4.35
2023-05-17T12:13:36.206Z,4.95
2023-05-17T12:17:55.688Z,9.13
2023-05-17T12:22:13.386Z,5.22
2023-05-17T12:26:31.346Z,9.10
2023-05-17T12:30:58.099Z,5.35
2023-05-17T12:35:16.184Z,6.30
2023-05-17T12:43:53.227Z,10.88
2023-05-17T12:48:17.695Z,8.98
2023-05-17T12:52:37.235Z,5.53
2023-05-17T12:56:55.404Z,4.65
2023-05-17T13:01:14.909Z,7.85
2023-05-17T13:05:32.090Z,7.35
2023-05-17T13:09:50.383Z,8.50
2023-05-17T13:14:09.329Z,6.65
2023-05-17T13:18:27.239Z,8.35
2023-05-17T13:22:49.058Z,6.38
2023-05-17T13:27:07.901Z,7.45
2023-05-17T13:31:25.716Z,3.25
2023-05-17T13:35:43.912Z,13.18
2023-05-17T13:40:01.683Z,14.45
2023-05-17T13:44:19.607Z,8.25
2023-05-17T13:48:39.055Z,9.18
2023-05-17T13:52:58.093Z,6.07
2023-05-17T13:57:15.657Z,11.48
2023-05-17T14:01:33.995Z,15.93
2023-05-17T14:10:26.110Z,9.73
2023-05-17T14:14:43.651Z,7.00
2023-05-17T14:19:04.444Z,7.10
2023-05-17T14:23:22.433Z,6.60
2023-05-17T14:27:43.278Z,6.28
2023-05-17T14:32:02.081Z,6.72
2023-05-17T14:36:19.652Z,3.78
2023-05-17T14:40:37.411Z,4.53
2023-05-17T14:44:55.116Z,8.85
2023-05-17T14:49:12.881Z,7.43
2023-05-17T14:53:31.099Z,10.05
2023-05-17T15:02:08.390Z,9.05
2023-05-17T15:06:26.304Z,7.95
2023-05-17T15:10:43.970Z,13.48
2023-05-17T15:15:01.843Z,7.15
2023-05-17T15:19:19.889Z,8.77
2023-05-17T15:23:39.079Z,10.52
2023-05-17T15:27:56.660Z,9.60
2023-05-17T15:32:14.451Z,8.48
2023-05-17T15:36:36.485Z,12.32
2023-05-17T15:41:12.704Z,6.35
2023-05-17T15:45:30.731Z,10.57
2023-05-17T15:49:50.094Z,9.65
2023-05-17T15:54:07.684Z,6.28
2023-05-17T15:58:28.672Z,6.03
2023-05-17T16:02:46.785Z,7.65
2023-05-17T16:07:04.843Z,10.75
2023-05-17T16:11:23.539Z,9.77
2023-05-17T16:15:44.994Z,9.15
2023-05-17T16:20:02.898Z,9.32
2023-05-17T16:24:21.811Z,12.32
2023-05-17T16:28:38.894Z,15.15
2023-05-17T16:32:56.759Z,9.55
2023-05-17T16:37:14.376Z,9.82
2023-05-17T16:41:33.802Z,7.90
2023-05-17T16:45:53.219Z,19.90
2023-05-17T16:50:11.649Z,13.02
2023-05-17T16:54:30.042Z,11.45
2023-05-17T16:58:47.822Z,11.80
2023-05-17T17:03:08.450Z,11.48
2023-05-17T17:07:26.844Z,12.75
2023-05-17T17:11:44.923Z,9.63
2023-05-17T17:20:21.141Z,19.00
2023-05-17T17:24:39.767Z,16.15
2023-05-17T17:28:59.246Z,14.80
2023-05-17T17:33:16.986Z,9.15
2023-05-17T17:37:34.555Z,10.23
2023-05-17T17:41:52.391Z,8.05
2023-05-17T17:46:10.186Z,10.27
2023-05-17T17:50:28.076Z,11.80
2023-05-17T17:54:46.302Z,8.35
2023-05-17T18:03:25.418Z,11.43
2023-05-17T18:07:43.209Z,12.00
2023-05-17T18:12:00.845Z,16.98
2023-05-17T18:16:18.772Z,9.85
2023-05-17T18:20:36.506Z,8.60
2023-05-17T18:24:54.299Z,12.50
2023-05-17T18:29:12.141Z,12.90
2023-05-17T18:33:29.831Z,12.20
2023-05-17T18:37:48.697Z,12.57
2023-05-17T18:42:06.334Z,9.57
2023-05-17T18:46:24.018Z,14.75
2023-05-17T18:50:41.620Z,19.90
2023-05-17T18:54:59.376Z,11.20
2023-05-17T18:59:16.986Z,18.38
2023-05-17T19:03:34.947Z,20.13
2023-05-17T19:07:52.725Z,27.48
2023-05-17T19:12:10.780Z,18.40
2023-05-17T19:16:29.519Z,14.18
2023-05-17T19:20:47.387Z,9.35
2023-05-17T19:25:05.875Z,11.68
2023-05-17T19:29:23.519Z,17.45
2023-05-17T19:33:41.564Z,30.38
2023-05-17T19:37:59.762Z,14.52
2023-05-17T19:46:35.059Z,9.40
2023-05-17T19:50:56.658Z,36.25
2023-05-17T19:55:16.068Z,12.15
2023-05-17T19:59:34.511Z,14.60
2023-05-17T20:03:52.767Z,39.72
2023-05-17T20:12:28.028Z,14.27
2023-05-17T20:16:45.992Z,31.83
2023-05-17T20:25:22.288Z,12.40
2023-05-17T20:29:40.920Z,16.77
2023-05-17T20:33:59.013Z,21.40
2023-05-17T20:42:38.034Z,14.88
2023-05-17T20:46:56.956Z,30.05
2023-05-17T20:51:15.501Z,16.58
2023-05-17T20:55:33.026Z,21.45
2023-05-17T20:59:51.279Z,14.68
2023-05-17T21:08:26.702Z,9.32
2023-05-17T21:12:44.616Z,8.15
2023-05-17T21:17:04.277Z,12.93
2023-05-17T21:21:21.991Z,15.82
2023-05-17T21:25:39.602Z,20.70
2023-05-17T21:29:57.500Z,11.02
2023-05-17T21:34:15.167Z,7.43
2023-05-17T21:38:32.790Z,12.45
2023-05-17T21:42:50.434Z,16.98
2023-05-17T21:47:08.255Z,13.60
2023-05-17T21:51:25.968Z,13.57
2023-05-17T21:56:00.647Z,10.93
2023-05-17T22:00:20.393Z,13.35
2023-05-17T22:04:38.948Z,13.30
2023-05-17T22:08:56.039Z,8.93
2023-05-17T22:13:16.204Z,9.95
2023-05-17T22:17:47.828Z,8.95
2023-05-17T22:22:09.336Z,15.20
2023-05-17T22:26:28.098Z,8.23
2023-05-17T22:30:46.658Z,9.98
2023-05-17T22:35:05.785Z,9.65
2023-05-17T22:39:23.350Z,7.60
2023-05-17T22:43:41.034Z,9.88
2023-05-17T22:47:59.163Z,10.48
2023-05-17T22:56:35.430Z,12.07
2023-05-17T23:00:53.390Z,8.95
2023-05-17T23:09:30.291Z,7.55
2023-05-17T23:13:48.079Z,8.18
2023-05-17T23:18:06.148Z,11.77
2023-05-17T23:22:23.875Z,5.45
2023-05-17T23:26:41.560Z,9.48
2023-05-17T23:31:02.384Z,6.40
2023-05-17T23:35:20.081Z,9.30
2023-05-17T23:39:37.826Z,6.72
2023-05-17T23:43:57.218Z,7.13
2023-05-17T23:48:16.457Z,9.02
2023-05-17T23:52:34.012Z,7.28
2023-05-17T23:56:51.697Z,8.23
